Time;durP1;ratioP1;P1;durP2;ratioP2;P2;SDS_P1;SDS_P2;PMS_P1;PMS_P2;Temp;Humidity;BMP_temperature;BMP_pressure;BME280_temperature;BME280_humidity;BME280_pressure;Samples;Min_cycle;Max_cycle;Signal;HPM_P1;HPM_P2
2024/04/05 00:00:13;;;;;;;4.27;1.70;;;10.30;1.00;;;;;;5053039;28;20207;-79
2024/04/05 00:03:01;;;;;;;6.77;1.90;;;10.30;1.00;;;;;;5056995;28;20254;-79
2024/04/05 00:05:49;;;;;;;4.90;2.20;;;10.30;1.00;;;;;;5069637;28;20581;-79
2024/04/05 00:08:35;;;;;;;2.90;1.83;;;10.30;99.90;;;;;;5062342;28;20193;-79
2024/04/05 00:11:22;;;;;;;6.07;3.23;;;10.30;99.90;;;;;;5050773;28;20202;-77
2024/04/05 00:14:09;;;;;;;5.70;3.03;;;10.30;99.90;;;;;;5056454;28;20463;-77
2024/04/05 00:16:56;;;;;;;5.47;4.00;;;10.30;1.00;;;;;;5070865;28;20280;-78
2024/04/05 00:19:44;;;;;;;8.07;4.43;;;10.20;99.90;;;;;;5063355;28;20199;-78
2024/04/05 00:22:31;;;;;;;6.07;3.33;;;10.20;99.90;;;;;;5059801;28;20259;-77
2024/04/05 00:25:17;;;;;;;9.47;4.20;;;10.20;1.00;;;;;;5065201;28;20308;-78
2024/04/05 00:28:05;;;;;;;6.47;3.70;;;10.20;99.90;;;;;;5061733;28;20224;-80
2024/04/05 00:30:52;;;;;;;6.10;4.10;;;10.20;99.90;;;;;;5058996;28;20198;-81
2024/04/05 00:33:39;;;;;;;5.93;3.97;;;10.10;99.90;;;;;;5057851;28;20197;-79
2024/04/05 00:36:26;;;;;;;6.37;3.67;;;10.10;99.90;;;;;;5071477;28;20543;-80
2024/04/05 00:39:14;;;;;;;6.43;3.43;;;10.10;99.90;;;;;;5050651;28;20218;-79
2024/04/05 00:42:00;;;;;;;5.00;3.63;;;10.10;99.90;;;;;;5041019;28;20226;-79
2024/04/05 00:44:47;;;;;;;9.10;4.20;;;10.10;99.90;;;;;;5033453;28;20206;-79
2024/04/05 00:47:34;;;;;;;7.40;4.90;;;10.10;99.90;;;;;;5032502;28;20219;-79
2024/04/05 00:50:21;;;;;;;13.37;5.43;;;10.10;99.90;;;;;;5038189;28;20197;-79
2024/04/05 00:53:10;;;;;;;8.30;5.17;;;10.10;99.90;;;;;;5043600;28;20196;-78
2024/04/05 00:55:58;;;;;;;8.80;5.50;;;10.20;99.90;;;;;;5032136;28;20213;-78
2024/04/05 00:58:44;;;;;;;10.13;6.33;;;10.20;99.90;;;;;;5036956;28;20620;-80
2024/04/05 01:01:31;;;;;;;9.70;7.07;;;10.10;99.90;;;;;;5051551;28;20200;-76
2024/04/05 01:04:18;;;;;;;9.30;6.33;;;10.10;99.90;;;;;;5038051;28;20201;-78
2024/04/05 01:07:05;;;;;;;7.87;6.27;;;10.10;99.90;;;;;;5049345;28;20205;-77
2024/04/05 01:09:54;;;;;;;9.27;5.50;;;10.00;1.00;;;;;;5039030;28;20205;-77
2024/04/05 01:12:41;;;;;;;10.20;6.53;;;10.00;1.00;;;;;;5034183;28;20731;-78
2024/04/05 01:15:27;;;;;;;10.90;6.53;;;10.00;99.90;;;;;;5032475;28;20214;-77
2024/04/05 01:18:14;;;;;;;7.37;5.67;;;9.90;1.00;;;;;;5039165;28;20229;-76
2024/04/05 01:21:01;;;;;;;5.73;4.57;;;9.90;1.00;;;;;;5031571;28;20236;-78
2024/04/05 01:23:50;;;;;;;6.20;4.20;;;9.90;1.00;;;;;;5030941;28;20226;-77
2024/04/05 01:26:36;;;;;;;6.90;3.67;;;9.80;1.00;;;;;;5044316;28;20679;-78
2024/04/05 01:29:23;;;;;;;7.50;3.07;;;9.80;1.00;;;;;;5039528;28;20756;-77
2024/04/05 01:32:10;;;;;;;5.80;3.60;;;9.70;1.00;;;;;;5044778;28;20202;-77
2024/04/05 01:34:57;;;;;;;6.40;2.20;;;9.80;1.00;;;;;;5034773;28;20233;-78
2024/04/05 01:37:43;;;;;;;4.07;2.10;;;9.70;1.00;;;;;;5039745;28;20206;-76
2024/04/05 01:40:32;;;;;;;5.13;2.37;;;9.70;1.00;;;;;;5043720;28;20225;-79
2024/04/05 01:43:18;;;;;;;5.20;2.10;;;9.70;1.00;;;;;;5054952;28;20228;-78
2024/04/05 01:46:05;;;;;;;5.60;2.60;;;9.60;1.00;;;;;;5055178;28;20295;-77
2024/04/05 01:48:51;;;;;;;5.77;2.73;;;9.70;1.00;;;;;;5054047;28;20196;-76
2024/04/05 01:51:39;;;;;;;7.60;2.60;;;9.60;1.00;;;;;;5079516;28;20196;-79
2024/04/05 01:54:25;;;;;;;6.10;4.50;;;9.60;1.00;;;;;;5058312;28;20283;-77
2024/04/05 01:57:14;;;;;;;11.20;4.43;;;9.50;1.00;;;;;;5052996;28;20194;-77
2024/04/05 02:00:00;;;;;;;7.23;5.60;;;9.40;1.00;;;;;;5066990;28;20318;-79
2024/04/05 02:02:48;;;;;;;5.13;4.20;;;9.40;1.00;;;;;;5062646;28;20260;-76
2024/04/05 02:05:34;;;;;;;5.43;3.50;;;9.40;1.00;;;;;;5068002;28;20279;-76
2024/04/05 02:08:21;;;;;;;4.90;2.93;;;9.50;1.00;;;;;;5063825;28;20655;-76
2024/04/05 02:11:07;;;;;;;4.73;3.17;;;9.50;1.00;;;;;;5055620;28;20206;-76
2024/04/05 02:13:56;;;;;;;4.23;2.60;;;9.50;99.90;;;;;;5068850;28;20242;-77
2024/04/05 02:16:42;;;;;;;4.73;2.50;;;9.50;99.90;;;;;;5066139;28;20724;-77
2024/04/05 02:19:29;;;;;;;4.17;2.93;;;9.50;10.10;;;;;;5068218;28;20724;-76
2024/04/05 02:22:16;;;;;;;6.93;4.37;;;9.50;6.00;;;;;;5063240;28;20223;-77
2024/04/05 02:25:03;;;;;;;5.30;3.50;;;9.50;1.00;;;;;;5056273;28;20247;-76
2024/04/05 02:27:49;;;;;;;9.10;5.17;;;9.40;1.00;;;;;;5067050;28;20287;-76
2024/04/05 02:30:40;;;;;;;7.30;4.33;;;9.40;1.00;;;;;;5056657;28;20750;-76
2024/04/05 02:33:26;;;;;;;6.53;4.70;;;9.40;1.00;;;;;;5054949;28;20201;-77
2024/04/05 02:36:14;;;;;;;9.23;6.10;;;9.40;1.00;;;;;;5066695;28;20693;-76
2024/04/05 02:39:00;;;;;;;10.27;5.70;;;9.40;21.60;;;;;;5056853;28;20244;-76
2024/04/05 02:41:47;;;;;;;10.50;6.00;;;9.40;1.00;;;;;;5053665;28;20318;-76
2024/04/05 02:44:33;;;;;;;10.63;5.77;;;9.30;1.00;;;;;;5069583;28;20225;-77
2024/04/05 02:47:22;;;;;;;7.87;4.80;;;9.40;1.00;;;;;;5062819;28;20568;-77
2024/04/05 02:50:08;;;;;;;5.80;4.07;;;9.40;99.90;;;;;;5071395;28;20269;-76
2024/04/05 02:52:55;;;;;;;7.10;4.30;;;9.30;99.90;;;;;;5072524;28;20610;-76
2024/04/05 02:55:42;;;;;;;10.07;3.73;;;9.30;99.90;;;;;;5065940;28;20198;-77
2024/04/05 02:58:29;;;;;;;6.87;3.67;;;9.40;99.90;;;;;;5079531;28;20219;-77
2024/04/05 03:01:15;;;;;;;8.00;4.27;;;9.30;1.00;;;;;;5069404;28;20200;-76
2024/04/05 03:04:04;;;;;;;4.73;2.83;;;9.30;43.30;;;;;;5073120;28;20212;-77
2024/04/05 03:06:50;;;;;;;6.87;2.40;;;9.30;1.00;;;;;;5070208;28;20193;-76
2024/04/05 03:09:40;;;;;;;6.33;2.83;;;9.30;99.90;;;;;;5071665;28;20587;-77
2024/04/05 03:12:26;;;;;;;5.93;1.90;;;9.30;1.00;;;;;;5072318;28;20205;-76
2024/04/05 03:15:14;;;;;;;4.10;1.60;;;9.30;1.00;;;;;;5063565;28;20196;-77
2024/04/05 03:18:00;;;;;;;6.13;1.63;;;9.30;1.00;;;;;;5065669;28;20197;-76
2024/04/05 03:20:48;;;;;;;4.37;1.60;;;9.30;1.00;;;;;;5071063;28;20235;-77
2024/04/05 03:23:35;;;;;;;5.30;1.50;;;9.30;1.00;;;;;;5068532;28;20713;-76
2024/04/05 03:26:22;;;;;;;6.90;1.37;;;9.30;99.90;;;;;;5069663;28;20280;-76
2024/04/05 03:29:08;;;;;;;4.40;1.50;;;9.20;1.00;;;;;;5064151;28;20204;-76
2024/04/05 03:31:55;;;;;;;4.43;1.67;;;9.20;99.90;;;;;;5071672;28;20309;-76
2024/04/05 03:34:42;;;;;;;5.50;2.10;;;9.20;29.10;;;;;;5072145;28;20595;-77
2024/04/05 03:37:30;;;;;;;5.77;2.93;;;9.10;1.20;;;;;;5069435;28;20195;-76
2024/04/05 03:40:18;;;;;;;2.97;1.87;;;9.20;1.00;;;;;;5066610;28;20240;-76
2024/04/05 03:43:05;;;;;;;3.60;1.90;;;9.10;1.00;;;;;;5068788;28;20266;-76
2024/04/05 03:45:51;;;;;;;3.60;1.70;;;9.10;1.00;;;;;;5070287;28;20212;-77
2024/04/05 03:48:40;;;;;;;3.67;1.70;;;9.00;1.00;;;;;;5070772;28;20227;-76
2024/04/05 03:51:26;;;;;;;4.67;1.50;;;9.00;1.00;;;;;;5070289;28;20205;-76
2024/04/05 03:54:15;;;;;;;3.80;1.50;;;9.00;1.00;;;;;;5068404;28;20192;-76
2024/04/05 03:57:02;;;;;;;6.87;2.77;;;8.80;1.00;;;;;;5066874;28;20203;-76
2024/04/05 03:59:50;;;;;;;8.20;2.67;;;8.90;1.00;;;;;;5064909;28;20216;-76
2024/04/05 04:02:36;;;;;;;10.77;2.93;;;8.80;1.00;;;;;;5061409;28;20703;-76
2024/04/05 04:05:24;;;;;;;6.03;4.50;;;8.60;99.90;;;;;;5063138;28;20246;-76
2024/04/05 04:08:10;;;;;;;6.60;5.07;;;8.50;1.00;;;;;;5074269;28;20202;-76
2024/04/05 04:10:58;;;;;;;9.30;5.90;;;8.40;1.00;;;;;;5068484;28;20199;-76
2024/04/05 04:13:45;;;;;;;8.03;5.70;;;8.40;99.90;;;;;;5071225;28;20188;-76
2024/04/05 04:16:32;;;;;;;9.77;6.00;;;8.40;1.00;;;;;;5065705;28;20198;-76
2024/04/05 04:19:18;;;;;;;13.90;7.50;;;8.30;99.90;;;;;;5061774;28;20204;-76
2024/04/05 04:22:07;;;;;;;8.70;6.70;;;8.30;99.90;;;;;;5067891;28;20283;-77
2024/04/05 04:24:53;;;;;;;12.20;6.73;;;8.20;99.90;;;;;;5069774;28;20215;-75
2024/04/05 04:27:42;;;;;;;9.67;6.93;;;8.20;99.90;;;;;;5064292;28;20237;-76
2024/04/05 04:30:30;;;;;;;10.17;6.70;;;8.20;99.90;;;;;;5068207;28;20210;-75
2024/04/05 04:33:18;;;;;;;13.43;7.93;;;8.20;46.60;;;;;;5066888;28;20221;-76
2024/04/05 04:36:05;;;;;;;12.50;8.00;;;8.10;94.60;;;;;;5064231;28;20200;-76
2024/04/05 04:38:52;;;;;;;13.97;7.57;;;8.10;99.90;;;;;;5063245;28;20706;-76
2024/04/05 04:41:38;;;;;;;15.33;8.93;;;8.10;99.90;;;;;;5064134;28;20267;-76
2024/04/05 04:44:27;;;;;;;11.97;7.87;;;8.10;99.90;;;;;;5070172;28;20215;-76
2024/04/05 04:47:13;;;;;;;14.27;8.57;;;8.10;1.00;;;;;;5066804;28;20214;-76
2024/04/05 04:50:00;;;;;;;14.73;9.10;;;8.10;1.00;;;;;;5063562;28;20232;-76
2024/04/05 04:52:46;;;;;;;14.90;9.33;;;8.10;99.90;;;;;;5073204;28;20654;-76
2024/04/05 04:55:34;;;;;;;14.20;8.50;;;8.10;99.90;;;;;;5064803;28;20199;-76
2024/04/05 04:58:22;;;;;;;14.47;7.53;;;8.10;99.90;;;;;;5062088;28;20227;-76
2024/04/05 05:01:11;;;;;;;12.27;7.57;;;8.20;99.90;;;;;;5066748;28;20197;-76
2024/04/05 05:03:57;;;;;;;16.33;7.30;;;8.30;1.00;;;;;;5061749;28;20633;-76
2024/04/05 05:06:44;;;;;;;11.53;6.90;;;8.30;99.90;;;;;;5070321;28;20674;-76
2024/04/05 05:09:31;;;;;;;10.27;6.47;;;8.40;99.90;;;;;;5071743;28;20222;-76
2024/04/05 05:12:18;;;;;;;13.13;5.90;;;8.50;99.90;;;;;;5070724;28;20559;-76
2024/04/05 05:15:05;;;;;;;11.63;5.70;;;8.50;99.90;;;;;;5069003;28;20194;-76
2024/04/05 05:17:53;;;;;;;11.83;5.00;;;8.50;1.00;;;;;;5066181;28;20226;-76
2024/04/05 05:20:44;;;;;;;12.17;5.20;;;8.60;99.90;;;;;;5067723;28;20203;-75
2024/04/05 05:23:31;;;;;;;12.77;5.80;;;8.60;99.90;;;;;;5057061;28;20595;-75
2024/04/05 05:26:18;;;;;;;12.00;5.87;;;8.60;54.50;;;;;;5060336;28;20675;-75
2024/04/05 05:29:05;;;;;;;12.87;4.80;;;8.70;99.90;;;;;;5065984;28;20660;-76
2024/04/05 05:31:51;;;;;;;5.73;3.80;;;8.90;99.90;;;;;;5065776;28;20201;-76
2024/04/05 05:34:40;;;;;;;10.20;5.50;;;8.90;13.30;;;;;;5063004;28;20234;-75
2024/04/05 05:37:26;;;;;;;14.97;6.17;;;8.80;99.90;;;;;;5061091;28;20206;-75
2024/04/05 05:40:13;;;;;;;8.27;5.43;;;8.90;99.90;;;;;;5060685;28;20328;-75
2024/04/05 05:42:59;;;;;;;10.17;4.33;;;9.00;1.00;;;;;;5061161;28;20338;-75
2024/04/05 05:45:47;;;;;;;11.40;6.17;;;9.10;99.90;;;;;;5059005;28;20283;-75
2024/04/05 05:48:33;;;;;;;11.73;6.93;;;9.10;99.90;;;;;;5065835;28;20655;-75
2024/04/05 05:51:21;;;;;;;14.77;8.27;;;9.20;1.00;;;;;;5065725;28;20631;-65
2024/04/05 05:54:08;;;;;;;12.90;8.43;;;9.10;1.00;;;;;;5063268;28;20208;-65
2024/04/05 05:56:55;;;;;;;14.53;8.30;;;9.10;99.90;;;;;;5065159;28;20200;-64
2024/04/05 05:59:41;;;;;;;13.90;9.13;;;9.20;99.90;;;;;;5062032;28;20537;-64
2024/04/05 06:02:29;;;;;;;15.00;9.07;;;9.30;99.90;;;;;;5060149;28;20336;-64
2024/04/05 06:05:18;;;;;;;16.27;8.87;;;9.40;1.00;;;;;;5062706;28;20196;-65
2024/04/05 06:08:07;;;;;;;17.23;8.47;;;9.30;99.90;;;;;;5057579;28;20204;-64
2024/04/05 06:10:55;;;;;;;19.27;9.33;;;9.50;99.90;;;;;;5057172;28;20208;-64
2024/04/05 06:13:42;;;;;;;13.20;7.77;;;9.60;99.90;;;;;;5062066;28;20196;-65
2024/04/05 06:16:28;;;;;;;12.17;7.70;;;9.70;81.80;;;;;;5056684;28;20196;-64
2024/04/05 06:19:15;;;;;;;18.00;7.23;;;9.70;99.90;;;;;;5065931;28;20288;-65
2024/04/05 06:22:02;;;;;;;13.63;5.40;;;9.70;99.90;;;;;;5053005;28;20204;-64
2024/04/05 06:24:53;;;;;;;13.73;6.03;;;9.80;99.90;;;;;;5071660;28;20228;-64
2024/04/05 06:27:41;;;;;;;7.50;5.40;;;10.00;99.90;;;;;;5072554;28;20274;-66
2024/04/05 06:30:29;;;;;;;11.80;4.70;;;10.10;1.00;;;;;;5070707;28;20617;-64
2024/04/05 06:33:15;;;;;;;7.93;4.17;;;10.20;1.00;;;;;;5068333;28;20188;-64
2024/04/05 06:36:03;;;;;;;12.83;4.60;;;10.30;99.90;;;;;;5064269;28;20279;-64
2024/04/05 06:38:49;;;;;;;9.97;4.23;;;10.20;99.90;;;;;;5074034;28;20243;-64
2024/04/05 06:41:38;;;;;;;8.00;3.30;;;10.20;99.90;;;;;;5069184;28;20293;-63
2024/04/05 06:44:26;;;;;;;4.53;2.20;;;10.30;99.90;;;;;;5064596;28;20217;-63
2024/04/05 06:47:13;;;;;;;10.20;3.70;;;10.40;6.20;;;;;;5063303;28;20566;-64
2024/04/05 06:49:59;;;;;;;5.20;3.13;;;10.50;1.00;;;;;;5072145;28;20204;-63
2024/04/05 06:52:47;;;;;;;6.43;2.50;;;10.70;1.00;;;;;;5068096;28;20201;-64
2024/04/05 06:55:33;;;;;;;10.03;2.43;;;10.90;1.00;;;;;;5069132;28;20657;-64
2024/04/05 06:58:23;;;;;;;3.53;1.70;;;11.00;1.00;;;;;;5067823;28;20246;-63
2024/04/05 07:01:09;;;;;;;4.33;1.87;;;11.10;1.00;;;;;;5066287;28;20217;-64
2024/04/05 07:03:56;;;;;;;6.87;2.50;;;11.10;1.00;;;;;;5063395;28;20292;-64
2024/04/05 07:06:43;;;;;;;4.93;2.60;;;11.20;1.00;;;;;;5070653;28;20207;-64
2024/04/05 07:09:30;;;;;;;6.63;2.50;;;11.50;1.00;;;;;;5069584;28;20292;-64
2024/04/05 07:12:17;;;;;;;8.40;1.93;;;11.60;1.00;;;;;;5069405;28;20198;-64
2024/04/05 07:15:07;;;;;;;5.63;2.00;;;11.50;99.90;;;;;;5071960;28;20744;-64
2024/04/05 07:17:54;;;;;;;7.67;2.20;;;11.50;99.90;;;;;;5068405;28;20191;-64
2024/04/05 07:20:40;;;;;;;6.60;1.93;;;12.00;1.00;;;;;;5063660;28;20211;-64
2024/04/05 07:23:28;;;;;;;3.17;1.33;;;12.20;99.90;;;;;;5071854;28;20229;-63
2024/04/05 07:26:14;;;;;;;7.20;1.70;;;12.10;1.00;;;;;;5072613;28;20566;-63
2024/04/05 07:29:02;;;;;;;3.07;1.50;;;12.10;1.00;;;;;;5061633;28;20610;-64
2024/04/05 07:31:50;;;;;;;5.07;2.10;;;12.40;1.00;;;;;;5069551;28;20206;-64
2024/04/05 07:34:37;;;;;;;3.00;1.10;;;12.30;1.00;;;;;;5055889;28;20194;-63
2024/04/05 07:37:23;;;;;;;3.03;1.37;;;12.20;99.90;;;;;;5065646;28;20207;-64
2024/04/05 07:40:11;;;;;;;4.43;1.07;;;12.20;1.00;;;;;;5065142;28;20275;-63
2024/04/05 07:42:57;;;;;;;7.53;1.60;;;12.30;99.90;;;;;;5061532;28;20207;-64
2024/04/05 07:45:44;;;;;;;3.33;1.30;;;12.30;99.90;;;;;;5064981;28;20730;-64
2024/04/05 07:48:32;;;;;;;1.17;0.70;;;12.30;99.90;;;;;;5053514;28;20215;-63
2024/04/05 07:51:20;;;;;;;1.60;0.63;;;12.40;98.10;;;;;;5062296;28;20573;-63
2024/04/05 07:54:08;;;;;;;5.00;1.30;;;12.30;99.90;;;;;;5059696;28;20212;-63
2024/04/05 07:56:55;;;;;;;4.40;1.30;;;12.30;99.90;;;;;;5061130;28;20204;-64
2024/04/05 07:59:42;;;;;;;4.33;1.40;;;12.40;99.90;;;;;;5063911;28;20210;-64
2024/04/05 08:02:29;;;;;;;5.30;1.53;;;12.50;99.90;;;;;;5058532;28;20198;-64
2024/04/05 08:05:17;;;;;;;7.53;1.50;;;12.50;99.90;;;;;;5064923;28;20218;-65
2024/04/05 08:08:05;;;;;;;5.70;1.53;;;12.70;99.90;;;;;;5063979;28;20806;-64
2024/04/05 08:10:58;;;;;;;9.73;1.63;;;12.70;99.90;;;;;;5064584;28;20634;-63
2024/04/05 08:13:46;;;;;;;3.97;1.40;;;12.50;99.90;;;;;;5059222;28;20208;-64
2024/04/05 08:16:32;;;;;;;6.70;2.00;;;12.60;13.10;;;;;;5056057;28;20190;-64
2024/04/05 08:19:19;;;;;;;7.50;2.30;;;12.60;1.00;;;;;;5066443;28;20191;-63
2024/04/05 08:22:07;;;;;;;7.60;2.27;;;12.80;99.90;;;;;;5067054;28;20280;-64
2024/04/05 08:24:55;;;;;;;5.53;2.07;;;12.90;1.00;;;;;;5069791;28;20589;-64
2024/04/05 08:27:43;;;;;;;5.77;2.03;;;13.40;1.00;;;;;;5065744;28;20300;-64
2024/04/05 08:30:30;;;;;;;5.97;1.53;;;13.60;1.00;;;;;;5066769;28;20746;-63
2024/04/05 08:33:16;;;;;;;6.37;1.60;;;13.70;1.00;;;;;;5068173;28;20211;-63
2024/04/05 08:36:04;;;;;;;4.80;1.77;;;13.30;1.00;;;;;;5068410;28;20668;-64
2024/04/05 08:38:51;;;;;;;4.47;0.80;;;13.50;1.00;;;;;;5051271;28;20719;-63
2024/04/05 08:41:39;;;;;;;1.93;0.87;;;13.50;1.00;;;;;;5064951;28;20316;-64
2024/04/05 08:44:25;;;;;;;4.80;1.27;;;13.10;1.00;;;;;;5069278;28;20212;-63
2024/04/05 08:47:12;;;;;;;4.70;1.40;;;12.90;1.00;;;;;;5064214;28;20202;-64
2024/04/05 08:49:59;;;;;;;2.23;0.87;;;13.00;1.00;;;;;;5064992;28;20202;-63
2024/04/05 08:52:46;;;;;;;3.60;1.23;;;13.20;1.00;;;;;;5060290;28;20204;-63
2024/04/05 08:55:37;;;;;;;6.73;1.23;;;13.40;1.00;;;;;;5062811;28;20275;-64
2024/04/05 08:58:23;;;;;;;4.53;1.43;;;13.70;1.00;;;;;;5067606;28;20254;-64
2024/04/05 09:01:10;;;;;;;5.50;1.33;;;14.20;1.00;;;;;;5069637;28;20197;-63
2024/04/05 09:03:57;;;;;;;3.97;0.90;;;13.90;99.90;;;;;;5068058;28;20222;-63
2024/04/05 09:06:45;;;;;;;5.47;1.30;;;14.30;1.00;;;;;;5065748;28;20194;-63
2024/04/05 09:09:32;;;;;;;2.13;0.73;;;14.50;1.00;;;;;;5066599;28;20292;-63
2024/04/05 09:12:22;;;;;;;1.60;0.83;;;14.30;99.90;;;;;;5068795;28;20223;-65
2024/04/05 09:15:08;;;;;;;2.53;1.00;;;14.30;99.90;;;;;;5060052;28;20656;-64
2024/04/05 09:17:55;;;;;;;6.47;1.10;;;14.10;99.90;;;;;;5060787;28;20201;-64
2024/04/05 09:20:44;;;;;;;4.77;0.87;;;14.20;99.90;;;;;;5064819;28;20219;-63
2024/04/05 09:23:31;;;;;;;5.10;1.30;;;14.30;99.90;;;;;;5066965;28;20220;-65
2024/04/05 09:26:19;;;;;;;6.47;1.20;;;14.30;1.00;;;;;;5065761;28;20208;-63
2024/04/05 09:29:07;;;;;;;3.87;1.13;;;14.40;99.90;;;;;;5064243;28;20292;-63
2024/04/05 09:31:55;;;;;;;3.67;0.90;;;14.20;99.90;;;;;;5053320;28;20215;-65
2024/04/05 09:34:42;;;;;;;5.13;1.40;;;14.50;99.90;;;;;;5057512;28;20199;-65
2024/04/05 09:37:29;;;;;;;4.53;1.07;;;14.80;99.90;;;;;;5068896;28;20207;-63
2024/04/05 09:40:17;;;;;;;6.50;1.10;;;14.70;99.90;;;;;;5065582;28;20247;-64
2024/04/05 09:43:03;;;;;;;1.67;0.40;;;14.70;99.90;;;;;;5064423;28;20211;-63
2024/04/05 09:45:52;;;;;;;4.23;0.70;;;14.70;99.90;;;;;;5064810;28;20200;-62
2024/04/05 09:48:39;;;;;;;4.87;1.03;;;14.40;99.90;;;;;;5065400;28;20196;-63
2024/04/05 09:51:28;;;;;;;3.03;1.10;;;14.60;99.90;;;;;;5065867;28;20195;-63
2024/04/05 09:54:17;;;;;;;4.70;0.83;;;14.90;99.90;;;;;;5064463;28;20198;-63
2024/04/05 09:57:05;;;;;;;6.67;1.00;;;15.00;99.90;;;;;;5064608;28;20570;-63
2024/04/05 09:59:51;;;;;;;0.87;0.60;;;14.80;99.90;;;;;;5060842;28;20228;-63
2024/04/05 10:02:39;;;;;;;3.57;0.90;;;14.80;99.90;;;;;;5064984;28;20693;-62
2024/04/05 10:05:26;;;;;;;3.07;0.83;;;14.40;99.90;;;;;;5059454;28;20227;-65
2024/04/05 10:08:16;;;;;;;6.10;1.20;;;14.40;99.90;;;;;;5065839;28;20202;-63
2024/04/05 10:11:11;;;;;;;3.37;1.07;;;14.40;99.90;;;;;;5063615;28;20218;-64
2024/04/05 10:14:02;;;;;;;6.80;1.50;;;14.70;99.90;;;;;;5059521;28;20572;-65
2024/04/05 10:16:48;;;;;;;6.43;1.00;;;14.90;99.90;;;;;;5064522;28;20216;-64
2024/04/05 10:19:39;;;;;;;4.13;1.23;;;14.90;99.90;;;;;;5063014;28;20257;-63
2024/04/05 10:22:25;;;;;;;3.77;0.93;;;14.90;99.90;;;;;;5065295;28;20223;-64
2024/04/05 10:25:13;;;;;;;2.90;0.97;;;15.10;99.90;;;;;;5064462;28;20216;-63
2024/04/05 10:27:59;;;;;;;3.40;1.00;;;15.30;99.90;;;;;;5061974;28;20211;-63
2024/04/05 10:30:46;;;;;;;3.73;1.00;;;15.30;99.90;;;;;;5057797;28;20200;-63
2024/04/05 10:33:32;;;;;;;4.83;1.00;;;15.50;99.90;;;;;;5065535;28;20238;-63
2024/04/05 10:36:21;;;;;;;3.33;1.00;;;15.50;99.90;;;;;;5065152;28;20207;-63
2024/04/05 10:39:16;;;;;;;2.80;1.23;;;15.00;99.90;;;;;;5066465;28;20223;-63
2024/04/05 10:42:05;;;;;;;3.83;1.17;;;14.40;99.90;;;;;;5064838;28;20225;-63
2024/04/05 10:44:55;;;;;;;4.10;1.10;;;14.40;99.90;;;;;;5057827;28;20596;-63
2024/04/05 10:47:52;;;;;;;9.63;1.40;;;14.40;99.90;;;;;;5066767;28;20290;-65
2024/04/05 10:50:40;;;;;;;2.27;0.63;;;14.40;99.90;;;;;;5063748;28;20237;-63
2024/04/05 10:53:29;;;;;;;4.83;1.13;;;14.50;1.00;;;;;;5060654;28;20725;-63
2024/04/05 10:56:17;;;;;;;6.27;1.20;;;14.70;99.90;;;;;;5067554;28;20202;-63
2024/04/05 10:59:06;;;;;;;7.40;1.17;;;14.80;99.90;;;;;;5066256;28;20235;-64
2024/04/05 11:01:53;;;;;;;5.43;1.40;;;15.00;99.90;;;;;;5066075;28;20681;-64
2024/04/05 11:04:40;;;;;;;3.90;0.83;;;14.90;99.90;;;;;;5060650;28;20220;-62
2024/04/05 11:07:27;;;;;;;6.17;1.30;;;14.80;99.90;;;;;;5068866;28;20591;-63
2024/04/05 11:10:16;;;;;;;4.13;1.07;;;14.70;99.90;;;;;;5063719;28;20709;-63
2024/04/05 11:13:15;;;;;;;8.03;1.10;;;14.80;99.90;;;;;;5066408;28;20668;-63
2024/04/05 11:16:02;;;;;;;2.43;1.10;;;15.20;99.90;;;;;;5058257;28;20208;-65
2024/04/05 11:18:49;;;;;;;4.23;1.00;;;15.20;99.90;;;;;;5069925;28;20658;-63
2024/04/05 11:21:35;;;;;;;5.20;1.23;;;15.50;99.90;;;;;;5066061;28;20211;-63
2024/04/05 11:24:23;;;;;;;5.10;1.20;;;16.30;99.90;;;;;;5070570;28;20228;-63
2024/04/05 11:27:10;;;;;;;5.17;0.90;;;16.30;99.90;;;;;;5057709;28;20204;-63
2024/04/05 11:29:57;;;;;;;3.63;0.87;;;15.90;99.90;;;;;;5063660;28;20237;-64
2024/04/05 11:32:44;;;;;;;3.73;1.20;;;15.90;99.90;;;;;;5064470;28;20212;-63
2024/04/05 11:35:31;;;;;;;5.67;0.80;;;15.60;99.90;;;;;;5060536;28;20597;-64
2024/04/05 11:38:17;;;;;;;5.10;1.30;;;16.20;99.90;;;;;;5061432;28;20211;-63
2024/04/05 11:41:04;;;;;;;5.00;0.90;;;16.20;99.90;;;;;;5066598;28;20327;-63
2024/04/05 11:43:54;;;;;;;5.03;1.07;;;16.80;99.90;;;;;;5066094;28;20216;-62
2024/04/05 11:46:41;;;;;;;2.80;0.90;;;16.50;99.90;;;;;;5060376;28;20204;-63
2024/04/05 11:49:27;;;;;;;3.03;0.80;;;16.40;99.90;;;;;;5065693;28;20215;-63
2024/04/05 11:52:14;;;;;;;2.07;0.70;;;16.20;99.90;;;;;;5060890;28;20227;-63
2024/04/05 11:55:02;;;;;;;8.47;1.00;;;16.20;99.90;;;;;;5067791;28;20277;-63
2024/04/05 11:57:49;;;;;;;4.03;0.90;;;15.80;69.20;;;;;;5055394;28;20627;-64
2024/04/05 12:00:39;;;;;;;2.87;0.70;;;15.70;75.50;;;;;;5054025;28;20208;-63
2024/04/05 12:03:25;;;;;;;4.80;0.93;;;16.10;99.90;;;;;;5068201;28;20565;-63
2024/04/05 12:06:12;;;;;;;3.53;1.07;;;16.80;99.90;;;;;;5068187;28;20675;-63
2024/04/05 12:08:59;;;;;;;3.80;1.00;;;17.10;99.90;;;;;;5066289;28;20318;-63
2024/04/05 12:11:46;;;;;;;4.77;0.90;;;16.90;99.90;;;;;;5070298;28;20200;-63
2024/04/05 12:14:33;;;;;;;6.53;1.13;;;16.40;99.90;;;;;;5067383;28;20210;-63
2024/04/05 12:17:21;;;;;;;1.83;0.70;;;16.50;99.90;;;;;;5066517;28;20192;-63
2024/04/05 12:20:10;;;;;;;2.30;0.60;;;16.20;99.90;;;;;;5067711;28;20299;-63
2024/04/05 12:22:58;;;;;;;2.73;0.50;;;16.00;99.90;;;;;;5068553;28;20319;-63
2024/04/05 12:25:53;;;;;;;5.07;1.07;;;16.20;99.90;;;;;;5066932;28;20221;-63
2024/04/05 12:28:41;;;;;;;3.60;0.70;;;16.10;99.90;;;;;;5063538;28;20234;-63
2024/04/05 12:31:27;;;;;;;3.87;1.10;;;16.30;99.90;;;;;;5066687;28;20203;-64
2024/04/05 12:34:15;;;;;;;4.13;0.67;;;17.10;99.90;;;;;;5068064;28;20199;-63
2024/04/05 12:37:08;;;;;;;4.83;0.90;;;16.70;99.90;;;;;;5063319;28;20662;-63
2024/04/05 12:39:55;;;;;;;3.10;0.77;;;16.60;99.90;;;;;;5060523;28;20281;-64
2024/04/05 12:42:42;;;;;;;5.43;1.20;;;16.50;99.90;;;;;;5058359;28;20210;-64
2024/04/05 12:45:29;;;;;;;5.70;0.90;;;16.60;99.90;;;;;;5059944;28;20252;-64
2024/04/05 12:48:15;;;;;;;3.57;0.80;;;16.60;99.90;;;;;;5065938;28;20204;-64
2024/04/05 12:51:05;;;;;;;4.63;0.97;;;16.30;99.90;;;;;;5063821;28;20282;-63
2024/04/05 12:53:51;;;;;;;5.80;1.00;;;16.20;99.90;;;;;;5065335;28;20201;-64
2024/04/05 12:56:39;;;;;;;6.47;1.00;;;16.40;99.90;;;;;;5065872;28;20227;-64
2024/04/05 12:59:25;;;;;;;4.53;0.93;;;16.60;99.90;;;;;;5067729;28;20199;-64
2024/04/05 13:02:12;;;;;;;4.93;1.00;;;16.90;99.90;;;;;;5068332;28;20481;-64
2024/04/05 13:04:58;;;;;;;1.13;0.70;;;17.10;99.90;;;;;;5061133;28;20213;-65
2024/04/05 13:07:47;;;;;;;2.60;0.97;;;16.90;99.90;;;;;;5072844;28;20253;-64
2024/04/05 13:10:33;;;;;;;3.83;1.20;;;16.60;99.90;;;;;;5067966;28;20224;-65
2024/04/05 13:13:20;;;;;;;4.93;1.10;;;16.70;99.90;;;;;;5074809;28;20234;-64
2024/04/05 13:16:07;;;;;;;0.63;0.50;;;17.00;99.90;;;;;;5065988;28;20208;-64
2024/04/05 13:18:54;;;;;;;5.80;0.93;;;16.40;99.90;;;;;;5065668;28;20188;-64
2024/04/05 13:21:40;;;;;;;6.83;1.50;;;16.10;99.90;;;;;;5063263;28;20203;-65
2024/04/05 13:24:31;;;;;;;3.00;0.73;;;16.30;99.90;;;;;;5062896;28;20227;-64
2024/04/05 13:27:17;;;;;;;5.03;1.10;;;16.50;99.90;;;;;;5061749;28;20197;-64
2024/04/05 13:30:05;;;;;;;3.60;1.10;;;16.70;99.90;;;;;;5061404;28;20204;-64
2024/04/05 13:32:53;;;;;;;3.70;1.10;;;16.60;99.90;;;;;;5063353;28;20196;-64
2024/04/05 13:35:41;;;;;;;2.90;1.00;;;16.60;99.90;;;;;;5058691;28;20193;-64
2024/04/05 13:38:27;;;;;;;5.73;0.60;;;16.50;99.90;;;;;;5063686;28;20224;-64
2024/04/05 13:41:15;;;;;;;8.97;1.40;;;16.50;99.90;;;;;;5059456;28;20754;-63
2024/04/05 13:44:03;;;;;;;2.60;0.80;;;16.40;99.90;;;;;;5062873;28;20204;-64
2024/04/05 13:46:50;;;;;;;4.30;1.10;;;16.60;99.90;;;;;;5061318;28;20208;-64
2024/04/05 13:49:36;;;;;;;8.97;1.50;;;16.60;99.90;;;;;;5059713;28;20205;-63
2024/04/05 13:52:24;;;;;;;6.37;1.27;;;16.50;99.90;;;;;;5067768;28;20266;-64
2024/04/05 13:55:11;;;;;;;7.77;1.27;;;16.60;99.90;;;;;;5064864;28;20826;-65
2024/04/05 13:57:59;;;;;;;4.20;1.13;;;16.70;99.90;;;;;;5065245;28;20200;-64
2024/04/05 14:00:46;;;;;;;9.50;1.30;;;16.80;99.90;;;;;;5064554;28;20710;-64
2024/04/05 14:03:33;;;;;;;4.53;1.07;;;16.50;99.90;;;;;;5061077;28;20243;-63
2024/04/05 14:06:20;;;;;;;4.60;1.20;;;16.50;99.90;;;;;;5062809;28;20224;-64
2024/04/05 14:09:11;;;;;;;5.33;1.40;;;16.60;99.90;;;;;;5063297;28;20204;-63
2024/04/05 14:11:58;;;;;;;6.33;1.40;;;16.80;99.90;;;;;;5056833;28;20200;-64
2024/04/05 14:14:48;;;;;;;5.07;1.20;;;17.10;99.90;;;;;;5061766;28;20209;-63
2024/04/05 14:17:35;;;;;;;8.40;1.40;;;16.80;99.90;;;;;;5061455;28;20224;-63
2024/04/05 14:20:21;;;;;;;6.17;1.27;;;16.70;99.90;;;;;;5065937;28;20209;-63
2024/04/05 14:23:09;;;;;;;3.97;1.20;;;16.40;99.90;;;;;;5065271;28;20239;-63
2024/04/05 14:25:56;;;;;;;6.03;1.17;;;16.20;99.90;;;;;;5057633;28;20718;-64
2024/04/05 14:28:43;;;;;;;7.57;1.30;;;16.30;99.90;;;;;;5055276;28;20264;-63
2024/04/05 14:31:32;;;;;;;4.27;0.97;;;16.40;99.90;;;;;;5060338;28;20207;-63
2024/04/05 14:34:18;;;;;;;5.97;1.40;;;16.50;1.00;;;;;;5067964;28;20232;-64
2024/04/05 14:37:06;;;;;;;11.20;1.83;;;16.70;99.90;;;;;;5057951;28;20316;-64